createdAt,value
2018-03-26T00:00:52.822Z,6.07
2018-03-26T00:03:21.141Z,6.17
2018-03-26T00:05:49.508Z,6.14
2018-03-26T00:08:17.874Z,6.11
2018-03-26T00:10:46.204Z,6.03
2018-03-26T00:13:15.319Z,6.00
2018-03-26T00:15:43.654Z,5.99
2018-03-26T00:18:12.108Z,5.97
2018-03-26T00:20:40.431Z,6.03
2018-03-26T00:23:09.549Z,6.04
2018-03-26T00:25:37.880Z,6.00
2018-03-26T00:28:06.241Z,6.01
2018-03-26T00:30:34.543Z,6.03
2018-03-26T00:33:02.884Z,6.05
2018-03-26T00:35:31.210Z,5.97
2018-03-26T00:38:00.327Z,5.91
2018-03-26T00:40:28.640Z,5.88
2018-03-26T00:42:57.000Z,5.84
2018-03-26T00:45:25.324Z,5.82
2018-03-26T00:47:53.676Z,5.84
2018-03-26T00:50:21.983Z,5.81
2018-03-26T00:52:50.360Z,5.79
2018-03-26T00:55:18.700Z,5.77
2018-03-26T00:57:47.022Z,5.77
2018-03-26T01:00:16.144Z,5.76
2018-03-26T01:02:44.496Z,5.76
2018-03-26T01:05:13.590Z,5.73
2018-03-26T01:07:42.706Z,5.76
2018-03-26T01:10:11.060Z,5.78
2018-03-26T01:12:39.435Z,5.70
2018-03-26T01:15:07.734Z,5.76
2018-03-26T01:17:36.857Z,5.73
2018-03-26T01:20:05.184Z,5.68
2018-03-26T01:22:33.552Z,5.67
2018-03-26T01:25:01.995Z,5.68
2018-03-26T01:27:31.442Z,5.53
2018-03-26T01:29:59.769Z,5.64
2018-03-26T01:32:28.117Z,5.60
2018-03-26T01:34:57.235Z,5.64
2018-03-26T01:37:25.566Z,5.62
2018-03-26T01:39:53.878Z,5.53
2018-03-26T01:42:22.226Z,5.58
2018-03-26T01:44:50.568Z,5.56
2018-03-26T01:47:18.922Z,5.57
2018-03-26T01:49:47.264Z,5.55
2018-03-26T01:52:16.396Z,5.57
2018-03-26T01:54:44.711Z,5.57
2018-03-26T01:57:13.068Z,5.46
2018-03-26T01:59:41.399Z,5.52
2018-03-26T02:02:10.601Z,5.54
2018-03-26T02:04:39.709Z,5.64
2018-03-26T02:07:08.032Z,5.64
2018-03-26T02:09:36.377Z,5.62
2018-03-26T02:12:04.704Z,5.55
2018-03-26T02:14:33.040Z,5.51
2018-03-26T02:17:01.364Z,5.45
2018-03-26T02:19:29.739Z,5.40
2018-03-26T02:21:58.056Z,5.43
2018-03-26T02:24:26.374Z,5.47
2018-03-26T02:26:54.732Z,5.45
2018-03-26T02:29:23.071Z,5.48
2018-03-26T02:31:52.188Z,5.46
2018-03-26T02:34:20.548Z,5.39
2018-03-26T02:36:48.851Z,5.31
2018-03-26T02:39:17.212Z,5.31
2018-03-26T02:41:45.560Z,5.37
2018-03-26T02:44:14.630Z,5.39
2018-03-26T02:46:43.028Z,5.36
2018-03-26T02:49:11.349Z,5.36
2018-03-26T02:51:39.675Z,5.35
2018-03-26T02:54:08.086Z,5.35
2018-03-26T02:56:36.432Z,5.33
2018-03-26T02:59:05.027Z,5.27
2018-03-26T03:01:33.382Z,5.25
2018-03-26T03:04:01.701Z,5.23
2018-03-26T03:06:30.773Z,5.28
2018-03-26T03:08:59.160Z,5.26
2018-03-26T03:11:28.250Z,5.35
2018-03-26T03:13:57.354Z,5.42
2018-03-26T03:16:25.695Z,5.42
2018-03-26T03:18:54.056Z,5.42
2018-03-26T03:21:22.375Z,5.34
2018-03-26T03:23:51.803Z,5.27
2018-03-26T03:26:20.155Z,5.25
2018-03-26T03:28:48.534Z,5.34
2018-03-26T03:31:17.652Z,5.34
2018-03-26T03:33:45.975Z,5.35
2018-03-26T03:36:14.325Z,5.40
2018-03-26T03:38:42.651Z,5.40
2018-03-26T03:41:10.961Z,5.34
2018-03-26T03:43:39.315Z,5.34
2018-03-26T03:46:08.403Z,5.38
2018-03-26T03:48:36.746Z,5.44
2018-03-26T03:51:05.067Z,5.49
2018-03-26T03:53:34.179Z,5.42
2018-03-26T03:56:03.255Z,5.39
2018-03-26T03:58:31.583Z,5.37
2018-03-26T04:00:59.949Z,5.40
2018-03-26T04:03:28.251Z,5.26
2018-03-26T04:05:56.549Z,5.24
2018-03-26T04:08:24.895Z,5.15
2018-03-26T04:10:53.226Z,5.17
2018-03-26T04:13:22.347Z,5.22
2018-03-26T04:15:50.649Z,5.18
2018-03-26T04:18:18.990Z,5.18
2018-03-26T04:20:47.315Z,5.20
2018-03-26T04:23:15.675Z,5.14
2018-03-26T04:25:43.990Z,5.09
2018-03-26T04:28:12.343Z,5.10
2018-03-26T04:30:40.671Z,5.13
2018-03-26T04:33:09.012Z,5.20
2018-03-26T04:35:37.352Z,5.24
2018-03-26T04:38:05.689Z,5.29
2018-03-26T04:40:34.774Z,5.32
2018-03-26T04:43:03.924Z,5.28
2018-03-26T04:45:32.250Z,5.18
2018-03-26T04:48:00.572Z,5.13
2018-03-26T04:50:28.918Z,5.20
2018-03-26T04:52:57.635Z,5.20
2018-03-26T04:55:25.958Z,5.23
2018-03-26T04:57:54.274Z,5.26
2018-03-26T05:00:23.388Z,5.31
2018-03-26T05:02:51.745Z,5.33
2018-03-26T05:05:20.100Z,5.28
2018-03-26T05:07:49.194Z,5.29
2018-03-26T05:10:18.328Z,5.23
2018-03-26T05:12:46.670Z,5.30
2018-03-26T05:15:15.789Z,5.38
2018-03-26T05:17:44.215Z,5.37
2018-03-26T05:20:12.559Z,5.29
2018-03-26T05:22:40.890Z,5.29
2018-03-26T05:25:09.275Z,5.45
2018-03-26T05:27:37.592Z,5.48
2018-03-26T05:30:05.958Z,5.50
2018-03-26T05:32:34.274Z,5.40
2018-03-26T05:35:02.598Z,5.32
2018-03-26T05:37:31.851Z,5.34
2018-03-26T05:40:00.200Z,5.31
2018-03-26T05:42:28.538Z,5.28
2018-03-26T05:44:57.618Z,5.40
2018-03-26T05:47:25.961Z,5.48
2018-03-26T05:49:54.283Z,5.52
2018-03-26T05:52:22.638Z,5.61
2018-03-26T05:54:50.987Z,5.60
2018-03-26T05:57:19.358Z,5.64
2018-03-26T05:59:47.670Z,5.67
2018-03-26T06:02:16.029Z,5.60
2018-03-26T06:04:44.372Z,5.57
2018-03-26T06:07:12.684Z,5.68
2018-03-26T06:09:41.021Z,5.82
2018-03-26T06:12:10.502Z,5.93
2018-03-26T06:14:38.826Z,5.99
2018-03-26T06:17:16.933Z,6.03
2018-03-26T06:19:45.535Z,6.08
2018-03-26T06:22:13.894Z,6.08
2018-03-26T06:24:43.332Z,6.06
2018-03-26T06:27:12.212Z,6.11
2018-03-26T06:29:40.549Z,6.17
2018-03-26T06:32:08.920Z,6.15
2018-03-26T06:34:38.605Z,5.93
2018-03-26T06:40:08.794Z,6.05
2018-03-26T06:42:37.100Z,6.22
2018-03-26T06:45:05.453Z,6.33
2018-03-26T06:47:33.807Z,6.43
2018-03-26T06:50:02.877Z,6.49
2018-03-26T06:52:31.969Z,6.47
2018-03-26T06:55:00.329Z,6.32
2018-03-26T06:57:28.705Z,6.42
2018-03-26T06:59:57.030Z,6.49
2018-03-26T07:02:25.401Z,6.61
2018-03-26T07:04:54.112Z,6.59
2018-03-26T07:07:22.446Z,6.63
2018-03-26T07:09:50.802Z,6.69
2018-03-26T07:12:19.898Z,6.79
2018-03-26T07:14:48.257Z,6.85
2018-03-26T07:17:16.586Z,6.90
2018-03-26T07:19:45.697Z,6.94
2018-03-26T07:22:14.067Z,6.85
2018-03-26T07:24:42.477Z,6.84
2018-03-26T07:27:10.853Z,6.95
2018-03-26T07:29:39.201Z,7.04
2018-03-26T07:32:07.526Z,7.16
2018-03-26T07:34:35.867Z,7.27
2018-03-26T07:37:04.185Z,7.28
2018-03-26T07:39:32.527Z,7.33
2018-03-26T07:42:00.848Z,7.46
2018-03-26T07:44:29.200Z,7.43
2018-03-26T07:46:57.515Z,7.54
2018-03-26T07:49:25.872Z,7.64
2018-03-26T07:51:54.292Z,7.80
2018-03-26T07:54:22.597Z,7.84
2018-03-26T07:56:50.926Z,7.92
2018-03-26T07:59:19.277Z,8.00
2018-03-26T08:01:47.622Z,7.93
2018-03-26T08:04:15.942Z,7.86
2018-03-26T08:06:45.066Z,7.89
2018-03-26T08:09:14.171Z,8.03
2018-03-26T08:11:43.256Z,8.15
2018-03-26T08:14:12.367Z,8.18
2018-03-26T08:16:41.068Z,8.23
2018-03-26T08:19:09.408Z,8.35
2018-03-26T08:21:37.734Z,8.43
2018-03-26T08:24:06.087Z,8.62
2018-03-26T08:26:34.447Z,8.79
2018-03-26T08:29:03.527Z,9.13
2018-03-26T08:31:31.876Z,9.15
2018-03-26T08:34:00.956Z,9.40
2018-03-26T08:36:29.340Z,9.61
2018-03-26T08:38:57.689Z,9.94
2018-03-26T08:41:26.037Z,10.14
2018-03-26T08:43:55.157Z,10.38
2018-03-26T08:46:23.481Z,10.70
2018-03-26T08:48:51.860Z,10.93
2018-03-26T08:51:20.191Z,11.04
2018-03-26T08:53:48.538Z,10.70
2018-03-26T08:56:16.867Z,10.85
2018-03-26T08:58:45.237Z,11.50
2018-03-26T09:01:13.573Z,11.58
2018-03-26T09:03:41.953Z,11.90
2018-03-26T09:06:10.287Z,11.41
2018-03-26T09:08:38.642Z,11.46
2018-03-26T09:11:06.975Z,11.75
2018-03-26T09:13:35.350Z,12.53
2018-03-26T09:16:03.701Z,12.39
2018-03-26T09:18:32.059Z,12.27
2018-03-26T09:21:00.416Z,12.04
2018-03-26T09:23:29.566Z,12.53
2018-03-26T09:25:57.888Z,12.87
2018-03-26T09:28:27.382Z,12.94
2018-03-26T09:30:56.467Z,12.79
2018-03-26T09:33:24.836Z,12.77
2018-03-26T09:35:53.229Z,12.92
2018-03-26T09:38:22.389Z,12.95
2018-03-26T09:40:50.703Z,13.10
2018-03-26T09:43:19.822Z,12.86
2018-03-26T09:45:48.185Z,12.41
2018-03-26T09:48:18.032Z,12.73
2018-03-26T09:50:47.164Z,12.84
2018-03-26T09:53:15.510Z,12.74
2018-03-26T09:55:43.845Z,12.57
2018-03-26T09:58:13.699Z,12.80
2018-03-26T10:00:47.853Z,12.45
2018-03-26T10:03:16.442Z,12.94
2018-03-26T10:05:45.549Z,13.36
2018-03-26T10:08:14.689Z,13.58
2018-03-26T10:10:43.051Z,13.50
2018-03-26T10:13:11.408Z,13.39
2018-03-26T10:15:40.556Z,13.46
2018-03-26T10:18:09.324Z,13.26
2018-03-26T10:20:37.670Z,13.12
2018-03-26T10:23:06.050Z,13.00
2018-03-26T10:25:35.164Z,12.85
2018-03-26T10:28:04.317Z,12.96
2018-03-26T10:30:33.440Z,12.68
2018-03-26T10:33:01.840Z,12.26
2018-03-26T10:35:30.168Z,12.18
2018-03-26T10:37:58.535Z,12.11
2018-03-26T10:40:26.881Z,11.90
2018-03-26T10:42:55.216Z,11.80
2018-03-26T10:45:24.341Z,11.87
2018-03-26T10:47:52.679Z,11.93
2018-03-26T10:50:21.034Z,12.14
2018-03-26T10:52:49.369Z,12.09
2018-03-26T10:55:17.744Z,12.17
2018-03-26T10:57:46.081Z,11.84
2018-03-26T11:00:14.463Z,12.12
2018-03-26T11:02:42.830Z,12.31
2018-03-26T11:05:11.199Z,12.15
2018-03-26T11:07:39.541Z,12.23
2018-03-26T11:10:07.899Z,12.19
2018-03-26T11:12:36.264Z,12.05
2018-03-26T11:15:05.401Z,12.02
2018-03-26T11:17:34.490Z,11.93
2018-03-26T11:20:02.860Z,11.60
2018-03-26T11:22:31.506Z,11.96
2018-03-26T11:25:00.645Z,12.37
2018-03-26T11:27:28.990Z,11.71
2018-03-26T11:29:58.092Z,12.28
2018-03-26T11:32:27.217Z,12.27
2018-03-26T11:34:55.603Z,12.26
2018-03-26T11:37:23.927Z,12.41
2018-03-26T11:39:52.279Z,12.38
2018-03-26T11:42:20.608Z,12.37
2018-03-26T11:44:48.967Z,12.52
2018-03-26T11:47:17.691Z,12.53
2018-03-26T11:49:46.114Z,12.46
2018-03-26T11:52:14.405Z,12.38
2018-03-26T11:54:43.182Z,12.45
2018-03-26T11:57:11.510Z,12.68
2018-03-26T11:59:39.866Z,12.80
2018-03-26T12:02:09.006Z,12.62
2018-03-26T12:04:37.375Z,12.31
2018-03-26T12:07:05.729Z,12.60
2018-03-26T12:09:34.059Z,12.63
2018-03-26T12:12:02.389Z,12.82
2018-03-26T12:14:30.751Z,12.90
2018-03-26T12:16:59.846Z,12.39
2018-03-26T12:19:28.995Z,13.05
2018-03-26T12:21:57.323Z,13.28
2018-03-26T12:24:43.393Z,13.66
2018-03-26T12:27:11.723Z,13.89
2018-03-26T12:32:50.373Z,14.06
2018-03-26T12:35:36.467Z,13.99
2018-03-26T12:38:04.857Z,13.84
2018-03-26T12:41:04.814Z,13.63
2018-03-26T12:43:52.412Z,13.36
2018-03-26T12:46:37.535Z,13.23
2018-03-26T12:49:05.857Z,12.84
2018-03-26T12:51:52.063Z,12.86
2018-03-26T12:54:21.182Z,12.57
2018-03-26T12:57:08.160Z,12.28
2018-03-26T12:59:36.502Z,12.06
2018-03-26T13:02:22.750Z,12.00
2018-03-26T13:04:52.438Z,12.12
2018-03-26T13:07:20.794Z,11.84
2018-03-26T13:09:49.145Z,11.71
2018-03-26T13:12:17.501Z,11.47
2018-03-26T13:14:46.602Z,11.43
2018-03-26T13:17:15.738Z,11.45
2018-03-26T13:19:44.053Z,11.43
2018-03-26T13:22:12.405Z,11.49
2018-03-26T13:24:40.740Z,11.56
2018-03-26T13:27:09.114Z,11.55
2018-03-26T13:29:38.201Z,11.65
2018-03-26T13:32:06.570Z,11.63
2018-03-26T13:34:34.894Z,11.30
2018-03-26T13:37:03.239Z,11.17
2018-03-26T13:39:31.608Z,11.12
2018-03-26T13:42:00.714Z,11.05
2018-03-26T13:44:29.089Z,11.03
2018-03-26T13:46:58.187Z,11.04
2018-03-26T13:49:27.302Z,11.13
2018-03-26T13:51:55.624Z,11.00
2018-03-26T13:54:23.996Z,11.01
2018-03-26T13:56:52.346Z,10.70
2018-03-26T13:59:20.816Z,10.63
2018-03-26T14:01:49.122Z,10.76
2018-03-26T14:04:18.235Z,10.96
2018-03-26T14:06:46.606Z,10.97
2018-03-26T14:09:32.558Z,10.54
2018-03-26T14:12:18.778Z,11.05
2018-03-26T14:15:04.920Z,11.08
2018-03-26T14:17:50.684Z,10.91
2018-03-26T14:20:19.056Z,11.10
2018-03-26T14:22:47.402Z,10.84
2018-03-26T14:25:15.778Z,10.70
2018-03-26T14:27:44.093Z,10.94
2018-03-26T14:30:12.462Z,11.08
2018-03-26T14:32:40.796Z,11.14
2018-03-26T14:38:29.982Z,10.59
2018-03-26T14:40:58.326Z,10.42
2018-03-26T14:43:28.209Z,10.16
2018-03-26T14:45:56.534Z,10.10
2018-03-26T14:48:24.913Z,9.95
2018-03-26T14:50:53.289Z,9.86
2018-03-26T14:53:21.637Z,9.80
2018-03-26T14:55:49.971Z,9.79
2018-03-26T14:58:18.341Z,9.75
2018-03-26T15:00:46.828Z,9.79
2018-03-26T15:03:15.164Z,9.84
2018-03-26T15:05:43.490Z,9.94
2018-03-26T15:08:11.901Z,10.03
2018-03-26T15:10:40.249Z,10.12
2018-03-26T15:13:08.629Z,10.24
2018-03-26T15:15:36.974Z,10.42
2018-03-26T15:18:05.361Z,10.42
2018-03-26T15:20:33.697Z,10.44
2018-03-26T15:23:02.798Z,10.54
2018-03-26T15:25:31.631Z,10.55
2018-03-26T15:28:00.126Z,10.51
2018-03-26T15:30:28.479Z,10.48
2018-03-26T15:32:56.818Z,10.50
2018-03-26T15:35:25.188Z,10.50
2018-03-26T15:37:53.537Z,10.41
2018-03-26T15:40:22.935Z,10.39
2018-03-26T15:42:52.080Z,10.37
2018-03-26T15:45:20.855Z,10.32
2018-03-26T15:47:49.221Z,10.19
2018-03-26T15:50:17.626Z,10.06
2018-03-26T15:52:45.975Z,9.90
2018-03-26T15:55:15.166Z,9.81
2018-03-26T15:57:43.545Z,9.69
2018-03-26T16:00:11.906Z,9.58
2018-03-26T16:02:45.846Z,9.51
2018-03-26T16:05:14.911Z,9.22
2018-03-26T16:07:43.708Z,9.28
2018-03-26T16:10:12.068Z,9.25
2018-03-26T16:12:40.419Z,9.22
2018-03-26T16:15:09.501Z,9.17
2018-03-26T16:17:38.626Z,9.21
2018-03-26T16:20:07.035Z,9.10
2018-03-26T16:22:35.437Z,9.06
2018-03-26T16:25:03.773Z,9.03
2018-03-26T16:27:32.129Z,8.99
2018-03-26T16:30:00.478Z,8.95
2018-03-26T16:32:29.638Z,8.82
2018-03-26T16:34:57.987Z,8.64
2018-03-26T16:37:27.173Z,8.62
2018-03-26T16:39:55.531Z,8.43
2018-03-26T16:42:28.720Z,8.28
2018-03-26T16:44:57.896Z,7.99
2018-03-26T16:47:26.224Z,7.98
2018-03-26T16:49:55.524Z,7.93
2018-03-26T16:52:23.885Z,7.82
2018-03-26T16:54:53.763Z,7.41
2018-03-26T16:57:22.206Z,7.44
2018-03-26T16:59:50.671Z,7.42
2018-03-26T17:02:19.816Z,7.32
2018-03-26T17:04:49.348Z,7.22
2018-03-26T17:07:18.989Z,7.22
2018-03-26T17:09:48.944Z,7.03
2018-03-26T17:12:19.443Z,6.90
2018-03-26T17:14:52.772Z,7.04
2018-03-26T17:17:27.842Z,7.09
2018-03-26T17:19:58.224Z,6.98
2018-03-26T17:22:26.635Z,6.95
2018-03-26T17:24:56.318Z,6.93
2018-03-26T17:27:27.987Z,6.98
2018-03-26T17:29:56.997Z,6.97
2018-03-26T17:32:27.788Z,6.94
2018-03-26T17:34:56.170Z,7.03
2018-03-26T17:37:27.120Z,6.92
2018-03-26T17:39:58.123Z,6.99
2018-03-26T17:42:26.907Z,6.97
2018-03-26T17:44:56.066Z,6.83
2018-03-26T17:47:25.292Z,6.81
2018-03-26T17:49:53.638Z,6.72
2018-03-26T17:52:23.112Z,6.71
2018-03-26T17:54:52.320Z,6.70
2018-03-26T17:57:20.692Z,6.69
2018-03-26T17:59:49.840Z,6.67
2018-03-26T18:02:18.739Z,6.74
2018-03-26T18:04:47.107Z,6.79
2018-03-26T18:07:15.936Z,6.77
2018-03-26T18:09:45.180Z,6.77
2018-03-26T18:12:15.192Z,6.63
2018-03-26T18:14:43.936Z,6.58
2018-03-26T18:17:12.458Z,6.34
2018-03-26T18:19:41.994Z,6.17
2018-03-26T18:22:10.480Z,6.05
2018-03-26T18:24:40.036Z,5.96
2018-03-26T18:27:09.180Z,5.91
2018-03-26T18:29:38.391Z,5.90
2018-03-26T18:32:06.784Z,5.89
2018-03-26T18:34:36.505Z,5.89
2018-03-26T18:37:06.767Z,5.88
2018-03-26T18:39:35.186Z,5.90
2018-03-26T18:42:05.031Z,5.88
2018-03-26T18:44:33.863Z,5.90
2018-03-26T18:47:02.265Z,5.90
2018-03-26T18:49:32.150Z,5.83
2018-03-26T18:52:01.690Z,5.75
2018-03-26T18:54:30.525Z,5.61
2018-03-26T18:57:00.063Z,5.46
2018-03-26T18:59:29.349Z,5.41
2018-03-26T19:01:58.134Z,5.40
2018-03-26T19:04:26.944Z,5.33
2018-03-26T19:06:55.934Z,5.20
2018-03-26T19:09:25.031Z,5.15
2018-03-26T19:11:53.723Z,5.03
2018-03-26T19:14:22.115Z,4.93
2018-03-26T19:16:51.372Z,4.93
2018-03-26T19:19:20.090Z,4.91
2018-03-26T19:21:49.592Z,4.84
2018-03-26T19:24:17.967Z,4.80
2018-03-26T19:26:46.351Z,4.78
2018-03-26T19:29:14.754Z,4.95
2018-03-26T19:31:44.676Z,5.00
2018-03-26T19:34:13.019Z,5.00
2018-03-26T19:36:41.389Z,4.94
2018-03-26T19:39:12.526Z,4.84
2018-03-26T19:41:41.659Z,4.75
2018-03-26T19:44:10.198Z,4.70
2018-03-26T19:46:38.504Z,4.76
2018-03-26T19:49:06.836Z,4.73
2018-03-26T19:51:36.563Z,4.74
2018-03-26T19:54:04.951Z,4.65
2018-03-26T19:56:33.688Z,4.61
2018-03-26T19:59:02.048Z,4.56
2018-03-26T20:01:31.982Z,4.47
2018-03-26T20:04:00.809Z,4.43
2018-03-26T20:06:29.536Z,4.39
2018-03-26T20:08:59.480Z,4.34
2018-03-26T20:11:29.927Z,4.29
2018-03-26T20:13:58.250Z,4.16
2018-03-26T20:16:27.010Z,4.05
2018-03-26T20:18:55.367Z,4.00
2018-03-26T20:21:24.470Z,3.99
2018-03-26T20:23:52.876Z,3.93
2018-03-26T20:26:21.974Z,3.92
2018-03-26T20:28:50.369Z,3.90
2018-03-26T20:31:18.751Z,3.84
2018-03-26T20:33:47.452Z,3.73
2018-03-26T20:36:16.236Z,3.58
2018-03-26T20:38:44.697Z,3.44
2018-03-26T20:41:13.053Z,3.32
2018-03-26T20:43:41.455Z,3.40
2018-03-26T20:46:09.798Z,3.45
2018-03-26T20:48:38.562Z,3.49
2018-03-26T20:51:07.692Z,3.52
2018-03-26T20:53:36.419Z,3.44
2018-03-26T20:56:06.241Z,3.38
2018-03-26T20:58:35.911Z,3.27
2018-03-26T21:01:05.039Z,3.21
2018-03-26T21:03:34.967Z,3.12
2018-03-26T21:06:04.142Z,3.00
2018-03-26T21:08:32.823Z,2.93
2018-03-26T21:11:01.989Z,2.90
2018-03-26T21:13:30.328Z,2.88
2018-03-26T21:15:59.452Z,2.90
2018-03-26T21:18:29.103Z,2.95
2018-03-26T21:20:58.947Z,2.90
2018-03-26T21:23:27.763Z,2.86
2018-03-26T21:25:56.100Z,2.97
2018-03-26T21:28:24.471Z,3.08
2018-03-26T21:30:53.177Z,3.16
2018-03-26T21:33:22.271Z,3.26
2018-03-26T21:35:51.377Z,3.34
2018-03-26T21:38:20.834Z,3.40
2018-03-26T21:40:49.207Z,3.43
2018-03-26T21:43:17.534Z,3.44
2018-03-26T21:45:46.393Z,3.42
2018-03-26T21:48:14.731Z,3.35
2018-03-26T21:50:43.830Z,3.29
2018-03-26T21:53:12.225Z,3.31
2018-03-26T21:55:40.583Z,3.38
2018-03-26T21:58:08.902Z,3.49
2018-03-26T22:00:37.291Z,3.63
2018-03-26T22:03:06.770Z,3.78
2018-03-26T22:05:35.514Z,3.84
2018-03-26T22:08:03.865Z,3.92
2018-03-26T22:10:32.955Z,4.18
2018-03-26T22:13:02.103Z,4.29
2018-03-26T22:15:30.494Z,4.31
2018-03-26T22:17:59.627Z,4.27
2018-03-26T22:20:29.095Z,4.29
2018-03-26T22:22:58.578Z,4.29
2018-03-26T22:25:26.894Z,4.32
2018-03-26T22:27:55.250Z,4.32
2018-03-26T22:30:23.599Z,4.25
2018-03-26T22:32:51.955Z,4.24
2018-03-26T22:35:20.718Z,4.27
2018-03-26T22:37:49.047Z,4.14
2018-03-26T22:40:17.384Z,4.26
2018-03-26T22:42:46.453Z,4.23
2018-03-26T22:45:14.815Z,4.13
2018-03-26T22:47:43.165Z,4.10
2018-03-26T22:50:11.518Z,3.98
2018-03-26T22:52:40.648Z,4.01
2018-03-26T22:55:10.172Z,4.08
2018-03-26T22:57:38.526Z,4.06
2018-03-26T23:00:06.834Z,3.97
2018-03-26T23:02:35.238Z,3.99
2018-03-26T23:05:03.597Z,4.18
2018-03-26T23:07:31.922Z,4.16
2018-03-26T23:10:00.238Z,4.22
2018-03-26T23:12:28.604Z,4.23
2018-03-26T23:14:56.937Z,4.14
2018-03-26T23:17:26.637Z,4.24
2018-03-26T23:19:55.383Z,4.18
2018-03-26T23:22:41.746Z,4.25
2018-03-26T23:25:10.111Z,4.28
2018-03-26T23:27:39.196Z,4.32
2018-03-26T23:30:08.308Z,4.30
2018-03-26T23:32:37.418Z,4.25
2018-03-26T23:35:05.715Z,4.12
2018-03-26T23:37:34.055Z,4.11
2018-03-26T23:40:03.932Z,4.17
2018-03-26T23:42:32.250Z,4.05
2018-03-26T23:45:00.606Z,4.10
2018-03-26T23:47:29.698Z,4.11
2018-03-26T23:49:58.049Z,4.04
2018-03-26T23:52:26.355Z,4.19
2018-03-26T23:54:54.725Z,4.11
2018-03-26T23:57:23.081Z,4.12
2018-03-26T23:59:51.384Z,4.16
